sensor_id;sensor_type;location;lat;lon;timestamp;P1;durP1;ratioP1;P2;durP2;ratioP2
67185;SDS011;54116;53.518;49.398;2023-03-01T00:04:47;12.02;;;4.93;;
67185;SDS011;54116;53.518;49.398;2023-03-01T00:09:39;12.48;;;4.53;;
67185;SDS011;54116;53.518;49.398;2023-03-01T00:12:06;11.73;;;5.03;;
67185;SDS011;54116;53.518;49.398;2023-03-01T00:16:59;11.88;;;4.45;;
67185;SDS011;54116;53.518;49.398;2023-03-01T00:19:25;15.43;;;4.60;;
67185;SDS011;54116;53.518;49.398;2023-03-01T00:21:51;14.25;;;5.38;;
67185;SDS011;54116;53.518;49.398;2023-03-01T00:24:17;12.40;;;4.22;;
67185;SDS011;54116;53.518;49.398;2023-03-01T00:26:43;11.65;;;4.63;;
67185;SDS011;54116;53.518;49.398;2023-03-01T00:29:10;11.15;;;4.68;;
67185;SDS011;54116;53.518;49.398;2023-03-01T00:31:38;14.25;;;4.75;;
67185;SDS011;54116;53.518;49.398;2023-03-01T00:34:04;12.77;;;4.95;;
67185;SDS011;54116;53.518;49.398;2023-03-01T00:39:16;11.82;;;4.22;;
67185;SDS011;54116;53.518;49.398;2023-03-01T00:41:42;10.95;;;4.60;;
67185;SDS011;54116;53.518;49.398;2023-03-01T00:44:10;13.40;;;4.95;;
67185;SDS011;54116;53.518;49.398;2023-03-01T00:46:36;11.07;;;4.28;;
67185;SDS011;54116;53.518;49.398;2023-03-01T00:49:04;13.40;;;4.82;;
67185;SDS011;54116;53.518;49.398;2023-03-01T00:51:30;14.40;;;5.07;;
67185;SDS011;54116;53.518;49.398;2023-03-01T00:54:00;13.40;;;4.85;;
67185;SDS011;54116;53.518;49.398;2023-03-01T00:56:34;12.00;;;4.40;;
67185;SDS011;54116;53.518;49.398;2023-03-01T00:59:01;12.02;;;4.43;;
67185;SDS011;54116;53.518;49.398;2023-03-01T01:03:58;10.23;;;3.97;;
67185;SDS011;54116;53.518;49.398;2023-03-01T01:06:27;11.60;;;4.57;;
67185;SDS011;54116;53.518;49.398;2023-03-01T01:08:57;12.35;;;4.20;;
67185;SDS011;54116;53.518;49.398;2023-03-01T01:11:27;13.85;;;5.05;;
67185;SDS011;54116;53.518;49.398;2023-03-01T01:13:54;9.68;;;4.38;;
67185;SDS011;54116;53.518;49.398;2023-03-01T01:16:23;12.27;;;4.15;;
67185;SDS011;54116;53.518;49.398;2023-03-01T01:18:51;17.15;;;4.63;;
67185;SDS011;54116;53.518;49.398;2023-03-01T01:21:19;10.15;;;4.40;;
67185;SDS011;54116;53.518;49.398;2023-03-01T01:23:47;11.07;;;4.22;;
67185;SDS011;54116;53.518;49.398;2023-03-01T01:26:15;12.40;;;4.55;;
67185;SDS011;54116;53.518;49.398;2023-03-01T01:28:48;10.45;;;3.88;;
67185;SDS011;54116;53.518;49.398;2023-03-01T01:31:16;11.75;;;4.25;;
67185;SDS011;54116;53.518;49.398;2023-03-01T01:33:42;12.15;;;4.18;;
67185;SDS011;54116;53.518;49.398;2023-03-01T01:36:08;10.73;;;4.60;;
67185;SDS011;54116;53.518;49.398;2023-03-01T01:38:35;12.90;;;4.75;;
67185;SDS011;54116;53.518;49.398;2023-03-01T01:41:04;12.27;;;4.47;;
67185;SDS011;54116;53.518;49.398;2023-03-01T01:43:39;8.52;;;3.72;;
67185;SDS011;54116;53.518;49.398;2023-03-01T01:48:43;11.65;;;4.40;;
67185;SDS011;54116;53.518;49.398;2023-03-01T01:51:13;11.30;;;4.20;;
67185;SDS011;54116;53.518;49.398;2023-03-01T01:53:44;11.15;;;4.55;;
67185;SDS011;54116;53.518;49.398;2023-03-01T01:56:15;9.50;;;4.20;;
67185;SDS011;54116;53.518;49.398;2023-03-01T01:58:44;14.57;;;5.00;;
67185;SDS011;54116;53.518;49.398;2023-03-01T02:01:12;13.82;;;4.68;;
67185;SDS011;54116;53.518;49.398;2023-03-01T02:03:39;12.30;;;4.53;;
67185;SDS011;54116;53.518;49.398;2023-03-01T02:08:36;11.57;;;4.20;;
67185;SDS011;54116;53.518;49.398;2023-03-01T02:11:05;10.90;;;3.90;;
67185;SDS011;54116;53.518;49.398;2023-03-01T02:13:33;15.43;;;4.93;;
67185;SDS011;54116;53.518;49.398;2023-03-01T02:16:04;13.02;;;4.72;;
67185;SDS011;54116;53.518;49.398;2023-03-01T02:18:34;13.13;;;4.82;;
67185;SDS011;54116;53.518;49.398;2023-03-01T02:23:47;10.10;;;4.00;;
67185;SDS011;54116;53.518;49.398;2023-03-01T02:29:05;10.65;;;3.58;;
67185;SDS011;54116;53.518;49.398;2023-03-01T02:34:18;11.63;;;4.45;;
67185;SDS011;54116;53.518;49.398;2023-03-01T02:36:52;12.18;;;4.55;;
67185;SDS011;54116;53.518;49.398;2023-03-01T02:39:23;11.27;;;4.32;;
67185;SDS011;54116;53.518;49.398;2023-03-01T02:41:55;12.32;;;5.45;;
67185;SDS011;54116;53.518;49.398;2023-03-01T02:44:23;13.32;;;4.95;;
67185;SDS011;54116;53.518;49.398;2023-03-01T02:46:51;12.32;;;4.68;;
67185;SDS011;54116;53.518;49.398;2023-03-01T02:49:24;13.05;;;4.78;;
67185;SDS011;54116;53.518;49.398;2023-03-01T02:51:56;13.57;;;4.53;;
67185;SDS011;54116;53.518;49.398;2023-03-01T02:54:50;12.45;;;4.20;;
67185;SDS011;54116;53.518;49.398;2023-03-01T02:57:22;12.32;;;4.65;;
67185;SDS011;54116;53.518;49.398;2023-03-01T02:59:50;12.90;;;4.40;;
67185;SDS011;54116;53.518;49.398;2023-03-01T03:02:22;13.35;;;4.45;;
67185;SDS011;54116;53.518;49.398;2023-03-01T03:05:21;15.35;;;4.90;;
67185;SDS011;54116;53.518;49.398;2023-03-01T03:07:53;17.60;;;5.40;;
67185;SDS011;54116;53.518;49.398;2023-03-01T03:10:23;13.07;;;4.53;;
67185;SDS011;54116;53.518;49.398;2023-03-01T03:12:53;11.38;;;4.22;;
67185;SDS011;54116;53.518;49.398;2023-03-01T03:15:21;10.90;;;4.13;;
67185;SDS011;54116;53.518;49.398;2023-03-01T03:17:48;12.10;;;4.43;;
67185;SDS011;54116;53.518;49.398;2023-03-01T03:20:16;12.10;;;4.07;;
67185;SDS011;54116;53.518;49.398;2023-03-01T03:22:47;10.40;;;4.30;;
67185;SDS011;54116;53.518;49.398;2023-03-01T03:25:16;11.70;;;4.53;;
67185;SDS011;54116;53.518;49.398;2023-03-01T03:27:45;13.13;;;4.60;;
67185;SDS011;54116;53.518;49.398;2023-03-01T03:30:18;11.45;;;4.15;;
67185;SDS011;54116;53.518;49.398;2023-03-01T03:32:46;12.82;;;4.65;;
67185;SDS011;54116;53.518;49.398;2023-03-01T03:35:20;10.93;;;3.85;;
67185;SDS011;54116;53.518;49.398;2023-03-01T03:37:51;15.38;;;4.22;;
67185;SDS011;54116;53.518;49.398;2023-03-01T03:40:27;11.35;;;4.25;;
67185;SDS011;54116;53.518;49.398;2023-03-01T03:43:05;12.30;;;4.18;;
67185;SDS011;54116;53.518;49.398;2023-03-01T03:45:32;12.65;;;4.28;;
67185;SDS011;54116;53.518;49.398;2023-03-01T03:47:59;12.65;;;4.85;;
67185;SDS011;54116;53.518;49.398;2023-03-01T03:50:26;11.52;;;4.55;;
67185;SDS011;54116;53.518;49.398;2023-03-01T03:52:52;11.00;;;4.40;;
67185;SDS011;54116;53.518;49.398;2023-03-01T03:55:18;12.23;;;4.43;;
67185;SDS011;54116;53.518;49.398;2023-03-01T03:57:48;12.00;;;4.47;;
67185;SDS011;54116;53.518;49.398;2023-03-01T04:00:17;10.10;;;3.70;;
67185;SDS011;54116;53.518;49.398;2023-03-01T04:02:45;14.50;;;4.70;;
67185;SDS011;54116;53.518;49.398;2023-03-01T04:05:15;10.73;;;4.07;;
67185;SDS011;54116;53.518;49.398;2023-03-01T04:07:43;13.43;;;4.43;;
67185;SDS011;54116;53.518;49.398;2023-03-01T04:10:11;9.82;;;3.70;;
67185;SDS011;54116;53.518;49.398;2023-03-01T04:12:39;11.40;;;3.72;;
67185;SDS011;54116;53.518;49.398;2023-03-01T04:15:06;12.02;;;4.03;;
67185;SDS011;54116;53.518;49.398;2023-03-01T04:20:09;10.75;;;4.18;;
67185;SDS011;54116;53.518;49.398;2023-03-01T04:22:37;10.60;;;4.25;;
67185;SDS011;54116;53.518;49.398;2023-03-01T04:25:04;10.52;;;4.07;;
67185;SDS011;54116;53.518;49.398;2023-03-01T04:27:33;11.18;;;3.90;;
67185;SDS011;54116;53.518;49.398;2023-03-01T04:30:00;9.43;;;3.70;;
67185;SDS011;54116;53.518;49.398;2023-03-01T04:32:26;9.43;;;4.03;;
67185;SDS011;54116;53.518;49.398;2023-03-01T04:34:52;10.57;;;4.38;;
67185;SDS011;54116;53.518;49.398;2023-03-01T04:37:18;9.23;;;3.67;;
67185;SDS011;54116;53.518;49.398;2023-03-01T04:39:44;11.18;;;4.07;;
67185;SDS011;54116;53.518;49.398;2023-03-01T04:42:11;7.90;;;3.72;;
67185;SDS011;54116;53.518;49.398;2023-03-01T04:44:37;9.10;;;3.35;;
67185;SDS011;54116;53.518;49.398;2023-03-01T04:47:03;9.38;;;4.13;;
67185;SDS011;54116;53.518;49.398;2023-03-01T04:49:29;12.35;;;3.53;;
67185;SDS011;54116;53.518;49.398;2023-03-01T04:51:56;9.65;;;3.65;;
67185;SDS011;54116;53.518;49.398;2023-03-01T04:54:29;10.02;;;3.47;;
67185;SDS011;54116;53.518;49.398;2023-03-01T04:56:58;9.10;;;3.38;;
67185;SDS011;54116;53.518;49.398;2023-03-01T04:59:24;9.77;;;3.33;;
67185;SDS011;54116;53.518;49.398;2023-03-01T05:01:51;10.32;;;4.28;;
67185;SDS011;54116;53.518;49.398;2023-03-01T05:04:21;10.20;;;3.47;;
67185;SDS011;54116;53.518;49.398;2023-03-01T05:06:48;10.38;;;3.63;;
67185;SDS011;54116;53.518;49.398;2023-03-01T05:14:07;7.85;;;3.08;;
67185;SDS011;54116;53.518;49.398;2023-03-01T05:16:34;10.13;;;3.65;;
67185;SDS011;54116;53.518;49.398;2023-03-01T05:19:01;8.90;;;3.45;;
67185;SDS011;54116;53.518;49.398;2023-03-01T05:21:37;8.50;;;3.03;;
67185;SDS011;54116;53.518;49.398;2023-03-01T05:24:22;8.65;;;3.28;;
67185;SDS011;54116;53.518;49.398;2023-03-01T05:26:49;10.18;;;3.83;;
67185;SDS011;54116;53.518;49.398;2023-03-01T05:29:18;8.95;;;3.70;;
67185;SDS011;54116;53.518;49.398;2023-03-01T05:31:53;11.50;;;4.10;;
67185;SDS011;54116;53.518;49.398;2023-03-01T05:34:24;8.30;;;3.17;;
67185;SDS011;54116;53.518;49.398;2023-03-01T05:36:52;9.40;;;3.47;;
67185;SDS011;54116;53.518;49.398;2023-03-01T05:39:28;10.02;;;3.33;;
67185;SDS011;54116;53.518;49.398;2023-03-01T05:41:56;11.02;;;4.18;;
67185;SDS011;54116;53.518;49.398;2023-03-01T05:44:23;10.02;;;3.78;;
67185;SDS011;54116;53.518;49.398;2023-03-01T05:46:50;9.75;;;3.42;;
67185;SDS011;54116;53.518;49.398;2023-03-01T05:49:17;9.05;;;3.55;;
67185;SDS011;54116;53.518;49.398;2023-03-01T05:51:47;8.80;;;3.67;;
67185;SDS011;54116;53.518;49.398;2023-03-01T05:54:14;8.20;;;3.22;;
67185;SDS011;54116;53.518;49.398;2023-03-01T05:56:41;7.75;;;3.33;;
67185;SDS011;54116;53.518;49.398;2023-03-01T05:59:07;8.80;;;3.05;;
67185;SDS011;54116;53.518;49.398;2023-03-01T06:01:33;8.35;;;3.30;;
67185;SDS011;54116;53.518;49.398;2023-03-01T06:04:00;8.48;;;2.70;;
67185;SDS011;54116;53.518;49.398;2023-03-01T06:06:27;8.60;;;3.08;;
67185;SDS011;54116;53.518;49.398;2023-03-01T06:08:53;7.15;;;2.60;;
67185;SDS011;54116;53.518;49.398;2023-03-01T06:13:48;7.53;;;2.50;;
67185;SDS011;54116;53.518;49.398;2023-03-01T06:18:40;6.45;;;2.40;;
67185;SDS011;54116;53.518;49.398;2023-03-01T06:21:07;8.75;;;2.67;;
67185;SDS011;54116;53.518;49.398;2023-03-01T06:23:34;6.00;;;2.20;;
67185;SDS011;54116;53.518;49.398;2023-03-01T06:26:00;6.05;;;1.95;;
67185;SDS011;54116;53.518;49.398;2023-03-01T06:28:31;6.60;;;2.47;;
67185;SDS011;54116;53.518;49.398;2023-03-01T06:30:57;5.63;;;2.22;;
67185;SDS011;54116;53.518;49.398;2023-03-01T06:33:24;6.88;;;2.60;;
67185;SDS011;54116;53.518;49.398;2023-03-01T06:35:50;6.85;;;2.67;;
67185;SDS011;54116;53.518;49.398;2023-03-01T06:38:17;6.20;;;2.47;;
67185;SDS011;54116;53.518;49.398;2023-03-01T06:40:44;7.00;;;2.33;;
67185;SDS011;54116;53.518;49.398;2023-03-01T06:43:17;6.43;;;2.17;;
67185;SDS011;54116;53.518;49.398;2023-03-01T06:45:43;8.63;;;2.63;;
67185;SDS011;54116;53.518;49.398;2023-03-01T06:48:10;6.28;;;2.50;;
67185;SDS011;54116;53.518;49.398;2023-03-01T06:50:36;4.75;;;1.83;;
67185;SDS011;54116;53.518;49.398;2023-03-01T06:53:03;5.88;;;1.38;;
67185;SDS011;54116;53.518;49.398;2023-03-01T06:55:30;4.15;;;1.45;;
67185;SDS011;54116;53.518;49.398;2023-03-01T06:57:57;4.57;;;1.20;;
67185;SDS011;54116;53.518;49.398;2023-03-01T07:00:24;4.97;;;1.13;;
67185;SDS011;54116;53.518;49.398;2023-03-01T07:02:52;4.97;;;1.33;;
67185;SDS011;54116;53.518;49.398;2023-03-01T07:05:19;3.50;;;1.27;;
67185;SDS011;54116;53.518;49.398;2023-03-01T07:07:46;3.97;;;1.13;;
67185;SDS011;54116;53.518;49.398;2023-03-01T07:10:12;5.95;;;1.85;;
67185;SDS011;54116;53.518;49.398;2023-03-01T07:15:08;5.20;;;1.42;;
67185;SDS011;54116;53.518;49.398;2023-03-01T07:17:35;6.18;;;1.45;;
67185;SDS011;54116;53.518;49.398;2023-03-01T07:20:02;5.28;;;1.35;;
67185;SDS011;54116;53.518;49.398;2023-03-01T07:22:29;5.03;;;1.60;;
67185;SDS011;54116;53.518;49.398;2023-03-01T07:24:55;4.88;;;1.42;;
67185;SDS011;54116;53.518;49.398;2023-03-01T07:27:21;5.80;;;1.35;;
67185;SDS011;54116;53.518;49.398;2023-03-01T07:29:48;3.85;;;1.25;;
67185;SDS011;54116;53.518;49.398;2023-03-01T07:32:14;3.72;;;0.98;;
67185;SDS011;54116;53.518;49.398;2023-03-01T07:34:40;3.75;;;0.95;;
67185;SDS011;54116;53.518;49.398;2023-03-01T07:37:06;2.58;;;0.85;;
67185;SDS011;54116;53.518;49.398;2023-03-01T07:41:59;2.58;;;0.80;;
67185;SDS011;54116;53.518;49.398;2023-03-01T07:44:25;3.75;;;1.08;;
67185;SDS011;54116;53.518;49.398;2023-03-01T07:49:22;6.03;;;1.20;;
67185;SDS011;54116;53.518;49.398;2023-03-01T07:51:48;3.90;;;1.42;;
67185;SDS011;54116;53.518;49.398;2023-03-01T07:56:41;7.82;;;1.27;;
67185;SDS011;54116;53.518;49.398;2023-03-01T07:59:07;4.15;;;1.35;;
67185;SDS011;54116;53.518;49.398;2023-03-01T08:03:59;7.05;;;2.20;;
67185;SDS011;54116;53.518;49.398;2023-03-01T08:06:27;4.03;;;1.33;;
67185;SDS011;54116;53.518;49.398;2023-03-01T08:11:25;4.07;;;1.25;;
67185;SDS011;54116;53.518;49.398;2023-03-01T08:13:54;4.25;;;1.13;;
67185;SDS011;54116;53.518;49.398;2023-03-01T08:16:20;4.22;;;1.30;;
67185;SDS011;54116;53.518;49.398;2023-03-01T08:21:14;4.22;;;1.35;;
67185;SDS011;54116;53.518;49.398;2023-03-01T08:23:42;4.80;;;1.38;;
67185;SDS011;54116;53.518;49.398;2023-03-01T08:26:10;3.00;;;1.05;;
67185;SDS011;54116;53.518;49.398;2023-03-01T08:28:39;5.93;;;1.27;;
67185;SDS011;54116;53.518;49.398;2023-03-01T08:31:39;4.13;;;1.30;;
67185;SDS011;54116;53.518;49.398;2023-03-01T08:34:07;2.92;;;0.88;;
67185;SDS011;54116;53.518;49.398;2023-03-01T08:39:03;5.75;;;1.10;;
67185;SDS011;54116;53.518;49.398;2023-03-01T08:41:30;3.50;;;0.93;;
67185;SDS011;54116;53.518;49.398;2023-03-01T08:46:26;12.60;;;1.20;;
67185;SDS011;54116;53.518;49.398;2023-03-01T08:48:54;3.47;;;1.13;;
67185;SDS011;54116;53.518;49.398;2023-03-01T08:51:20;2.47;;;0.80;;
67185;SDS011;54116;53.518;49.398;2023-03-01T08:53:47;3.80;;;0.80;;
67185;SDS011;54116;53.518;49.398;2023-03-01T08:56:16;3.40;;;0.73;;
67185;SDS011;54116;53.518;49.398;2023-03-01T08:58:45;2.88;;;0.63;;
67185;SDS011;54116;53.518;49.398;2023-03-01T09:01:13;3.95;;;1.00;;
67185;SDS011;54116;53.518;49.398;2023-03-01T09:03:43;2.90;;;0.73;;
67185;SDS011;54116;53.518;49.398;2023-03-01T09:06:10;3.90;;;1.10;;
67185;SDS011;54116;53.518;49.398;2023-03-01T09:08:41;2.78;;;1.13;;
67185;SDS011;54116;53.518;49.398;2023-03-01T09:11:10;1.77;;;0.73;;
67185;SDS011;54116;53.518;49.398;2023-03-01T09:13:38;5.32;;;1.08;;
67185;SDS011;54116;53.518;49.398;2023-03-01T09:16:06;3.88;;;0.75;;
67185;SDS011;54116;53.518;49.398;2023-03-01T09:18:34;4.03;;;0.75;;
67185;SDS011;54116;53.518;49.398;2023-03-01T09:21:06;5.30;;;0.75;;
67185;SDS011;54116;53.518;49.398;2023-03-01T09:23:41;3.38;;;1.10;;
67185;SDS011;54116;53.518;49.398;2023-03-01T09:26:11;3.22;;;0.82;;
67185;SDS011;54116;53.518;49.398;2023-03-01T09:28:48;2.75;;;0.93;;
67185;SDS011;54116;53.518;49.398;2023-03-01T09:31:17;4.35;;;1.02;;
67185;SDS011;54116;53.518;49.398;2023-03-01T09:33:45;4.93;;;1.00;;
67185;SDS011;54116;53.518;49.398;2023-03-01T09:36:15;2.78;;;0.73;;
67185;SDS011;54116;53.518;49.398;2023-03-01T09:38:43;2.85;;;0.77;;
67185;SDS011;54116;53.518;49.398;2023-03-01T09:41:26;2.72;;;0.68;;
67185;SDS011;54116;53.518;49.398;2023-03-01T09:44:11;1.15;;;0.70;;
67185;SDS011;54116;53.518;49.398;2023-03-01T09:46:40;2.42;;;0.70;;
67185;SDS011;54116;53.518;49.398;2023-03-01T09:49:12;3.72;;;0.75;;
67185;SDS011;54116;53.518;49.398;2023-03-01T09:54:48;2.97;;;0.90;;
67185;SDS011;54116;53.518;49.398;2023-03-01T09:57:26;2.25;;;0.80;;
67185;SDS011;54116;53.518;49.398;2023-03-01T10:08:36;1.60;;;0.75;;
67185;SDS011;54116;53.518;49.398;2023-03-01T10:11:05;3.88;;;0.82;;
67185;SDS011;54116;53.518;49.398;2023-03-01T10:14:01;3.05;;;1.20;;
67185;SDS011;54116;53.518;49.398;2023-03-01T10:19:25;3.05;;;0.73;;
67185;SDS011;54116;53.518;49.398;2023-03-01T10:22:04;2.20;;;0.73;;
67185;SDS011;54116;53.518;49.398;2023-03-01T10:24:38;4.45;;;1.13;;
67185;SDS011;54116;53.518;49.398;2023-03-01T10:29:48;1.20;;;0.65;;
67185;SDS011;54116;53.518;49.398;2023-03-01T10:32:36;5.70;;;0.63;;
67185;SDS011;54116;53.518;49.398;2023-03-01T10:37:56;2.25;;;0.65;;
67185;SDS011;54116;53.518;49.398;2023-03-01T10:41:00;4.13;;;1.00;;
67185;SDS011;54116;53.518;49.398;2023-03-01T10:43:53;1.30;;;0.52;;
67185;SDS011;54116;53.518;49.398;2023-03-01T10:46:35;2.83;;;0.90;;
67185;SDS011;54116;53.518;49.398;2023-03-01T10:51:46;2.95;;;1.10;;
67185;SDS011;54116;53.518;49.398;2023-03-01T10:57:00;2.70;;;0.68;;
67185;SDS011;54116;53.518;49.398;2023-03-01T11:04:57;3.67;;;0.80;;
67185;SDS011;54116;53.518;49.398;2023-03-01T11:07:25;2.28;;;0.45;;
67185;SDS011;54116;53.518;49.398;2023-03-01T11:12:20;1.92;;;0.43;;
67185;SDS011;54116;53.518;49.398;2023-03-01T11:14:53;4.63;;;0.60;;
67185;SDS011;54116;53.518;49.398;2023-03-01T11:17:25;4.75;;;0.77;;
67185;SDS011;54116;53.518;49.398;2023-03-01T11:22:30;1.90;;;0.52;;
67185;SDS011;54116;53.518;49.398;2023-03-01T11:24:58;1.88;;;0.60;;
67185;SDS011;54116;53.518;49.398;2023-03-01T11:27:27;2.45;;;0.40;;
67185;SDS011;54116;53.518;49.398;2023-03-01T11:32:25;2.92;;;0.63;;
67185;SDS011;54116;53.518;49.398;2023-03-01T11:35:10;3.20;;;0.85;;
67185;SDS011;54116;53.518;49.398;2023-03-01T11:37:55;3.95;;;1.13;;
67185;SDS011;54116;53.518;49.398;2023-03-01T11:40:24;1.33;;;0.63;;
67185;SDS011;54116;53.518;49.398;2023-03-01T11:45:43;3.42;;;0.65;;
67185;SDS011;54116;53.518;49.398;2023-03-01T11:48:43;1.92;;;0.63;;
67185;SDS011;54116;53.518;49.398;2023-03-01T11:51:31;4.70;;;1.05;;
67185;SDS011;54116;53.518;49.398;2023-03-01T11:57:08;2.75;;;0.70;;
67185;SDS011;54116;53.518;49.398;2023-03-01T12:12:56;4.65;;;1.38;;
67185;SDS011;54116;53.518;49.398;2023-03-01T12:20:47;3.40;;;0.90;;
67185;SDS011;54116;53.518;49.398;2023-03-01T12:26:19;4.50;;;1.02;;
67185;SDS011;54116;53.518;49.398;2023-03-01T12:28:49;5.85;;;1.05;;
67185;SDS011;54116;53.518;49.398;2023-03-01T12:31:36;4.50;;;0.73;;
67185;SDS011;54116;53.518;49.398;2023-03-01T12:44:46;2.33;;;0.98;;
67185;SDS011;54116;53.518;49.398;2023-03-01T12:50:21;3.72;;;0.88;;
67185;SDS011;54116;53.518;49.398;2023-03-01T12:52:55;2.72;;;0.75;;
67185;SDS011;54116;53.518;49.398;2023-03-01T12:55:28;2.83;;;0.63;;
67185;SDS011;54116;53.518;49.398;2023-03-01T13:06:35;5.15;;;1.35;;
67185;SDS011;54116;53.518;49.398;2023-03-01T13:09:10;5.85;;;1.13;;
67185;SDS011;54116;53.518;49.398;2023-03-01T13:11:43;4.13;;;1.27;;
67185;SDS011;54116;53.518;49.398;2023-03-01T13:16:54;8.13;;;2.22;;
67185;SDS011;54116;53.518;49.398;2023-03-01T13:21:51;12.38;;;2.55;;
67185;SDS011;54116;53.518;49.398;2023-03-01T13:32:33;6.30;;;1.33;;
67185;SDS011;54116;53.518;49.398;2023-03-01T13:37:43;7.25;;;1.45;;
67185;SDS011;54116;53.518;49.398;2023-03-01T13:40:56;4.85;;;0.93;;
67185;SDS011;54116;53.518;49.398;2023-03-01T13:42:56;8.88;;;1.27;;
67185;SDS011;54116;53.518;49.398;2023-03-01T13:45:43;1.98;;;0.63;;
67185;SDS011;54116;53.518;49.398;2023-03-01T13:48:15;1.45;;;0.52;;
67185;SDS011;54116;53.518;49.398;2023-03-01T13:50:47;3.55;;;0.85;;
67185;SDS011;54116;53.518;49.398;2023-03-01T13:53:19;3.78;;;0.82;;
67185;SDS011;54116;53.518;49.398;2023-03-01T13:58:46;5.47;;;1.15;;
67185;SDS011;54116;53.518;49.398;2023-03-01T14:01:23;4.05;;;0.60;;
67185;SDS011;54116;53.518;49.398;2023-03-01T14:03:51;3.90;;;0.70;;
67185;SDS011;54116;53.518;49.398;2023-03-01T14:06:22;5.32;;;0.70;;
67185;SDS011;54116;53.518;49.398;2023-03-01T14:08:52;5.20;;;0.90;;
67185;SDS011;54116;53.518;49.398;2023-03-01T14:19:26;3.17;;;0.75;;
67185;SDS011;54116;53.518;49.398;2023-03-01T14:24:44;2.08;;;0.43;;
67185;SDS011;54116;53.518;49.398;2023-03-01T14:27:14;3.10;;;0.47;;
67185;SDS011;54116;53.518;49.398;2023-03-01T14:29:41;3.25;;;0.70;;
67185;SDS011;54116;53.518;49.398;2023-03-01T14:32:08;3.95;;;1.23;;
67185;SDS011;54116;53.518;49.398;2023-03-01T14:34:35;2.17;;;0.60;;
67185;SDS011;54116;53.518;49.398;2023-03-01T14:37:11;6.85;;;1.10;;
67185;SDS011;54116;53.518;49.398;2023-03-01T14:39:43;7.70;;;1.30;;
67185;SDS011;54116;53.518;49.398;2023-03-01T14:42:09;7.07;;;1.48;;
67185;SDS011;54116;53.518;49.398;2023-03-01T14:44:37;8.05;;;1.60;;
67185;SDS011;54116;53.518;49.398;2023-03-01T14:47:04;5.78;;;2.15;;
67185;SDS011;54116;53.518;49.398;2023-03-01T14:49:31;9.23;;;1.55;;
67185;SDS011;54116;53.518;49.398;2023-03-01T14:54:29;6.40;;;1.05;;
67185;SDS011;54116;53.518;49.398;2023-03-01T14:57:12;3.63;;;0.93;;
67185;SDS011;54116;53.518;49.398;2023-03-01T14:59:47;3.15;;;1.10;;
67185;SDS011;54116;53.518;49.398;2023-03-01T15:02:17;2.33;;;0.85;;
67185;SDS011;54116;53.518;49.398;2023-03-01T15:04:46;3.13;;;0.80;;
67185;SDS011;54116;53.518;49.398;2023-03-01T15:07:15;3.28;;;1.25;;
67185;SDS011;54116;53.518;49.398;2023-03-01T15:09:42;3.55;;;0.68;;
67185;SDS011;54116;53.518;49.398;2023-03-01T15:12:31;3.88;;;0.50;;
67185;SDS011;54116;53.518;49.398;2023-03-01T15:15:02;5.75;;;0.60;;
67185;SDS011;54116;53.518;49.398;2023-03-01T15:18:15;2.90;;;0.60;;
67185;SDS011;54116;53.518;49.398;2023-03-01T15:20:42;2.83;;;0.73;;
67185;SDS011;54116;53.518;49.398;2023-03-01T15:25:54;3.92;;;1.13;;
67185;SDS011;54116;53.518;49.398;2023-03-01T15:28:29;2.55;;;0.73;;
67185;SDS011;54116;53.518;49.398;2023-03-01T15:31:17;2.00;;;0.60;;
67185;SDS011;54116;53.518;49.398;2023-03-01T15:33:47;1.63;;;0.80;;
67185;SDS011;54116;53.518;49.398;2023-03-01T15:42:05;3.67;;;1.15;;
67185;SDS011;54116;53.518;49.398;2023-03-01T15:44:37;9.35;;;1.75;;
67185;SDS011;54116;53.518;49.398;2023-03-01T15:47:25;14.93;;;2.30;;
67185;SDS011;54116;53.518;49.398;2023-03-01T15:49:54;8.93;;;1.77;;
67185;SDS011;54116;53.518;49.398;2023-03-01T15:52:24;7.72;;;2.42;;
67185;SDS011;54116;53.518;49.398;2023-03-01T15:55:05;11.10;;;1.63;;
67185;SDS011;54116;53.518;49.398;2023-03-01T15:57:40;3.97;;;1.52;;
67185;SDS011;54116;53.518;49.398;2023-03-01T16:00:09;7.57;;;1.23;;
67185;SDS011;54116;53.518;49.398;2023-03-01T16:02:40;4.80;;;1.30;;
67185;SDS011;54116;53.518;49.398;2023-03-01T16:05:22;3.15;;;0.63;;
67185;SDS011;54116;53.518;49.398;2023-03-01T16:07:56;2.15;;;0.73;;
67185;SDS011;54116;53.518;49.398;2023-03-01T16:10:23;7.25;;;1.00;;
67185;SDS011;54116;53.518;49.398;2023-03-01T16:15:19;1.75;;;0.75;;
67185;SDS011;54116;53.518;49.398;2023-03-01T16:17:47;2.35;;;0.70;;
67185;SDS011;54116;53.518;49.398;2023-03-01T16:20:14;5.35;;;0.93;;
67185;SDS011;54116;53.518;49.398;2023-03-01T16:22:44;2.05;;;0.70;;
67185;SDS011;54116;53.518;49.398;2023-03-01T16:25:15;1.73;;;0.52;;
67185;SDS011;54116;53.518;49.398;2023-03-01T16:27:43;2.58;;;0.55;;
67185;SDS011;54116;53.518;49.398;2023-03-01T16:30:15;4.97;;;1.00;;
67185;SDS011;54116;53.518;49.398;2023-03-01T16:32:46;3.15;;;0.57;;
67185;SDS011;54116;53.518;49.398;2023-03-01T16:35:14;2.08;;;0.82;;
67185;SDS011;54116;53.518;49.398;2023-03-01T16:37:43;3.13;;;0.90;;
67185;SDS011;54116;53.518;49.398;2023-03-01T16:40:26;2.80;;;0.70;;
67185;SDS011;54116;53.518;49.398;2023-03-01T16:42:54;3.20;;;0.63;;
67185;SDS011;54116;53.518;49.398;2023-03-01T16:45:25;3.75;;;0.80;;
67185;SDS011;54116;53.518;49.398;2023-03-01T16:47:52;7.13;;;1.23;;
67185;SDS011;54116;53.518;49.398;2023-03-01T16:50:18;3.17;;;0.85;;
67185;SDS011;54116;53.518;49.398;2023-03-01T16:52:45;1.83;;;0.50;;
67185;SDS011;54116;53.518;49.398;2023-03-01T16:55:11;2.65;;;0.85;;
67185;SDS011;54116;53.518;49.398;2023-03-01T16:57:38;1.38;;;0.73;;
67185;SDS011;54116;53.518;49.398;2023-03-01T17:00:05;3.75;;;0.93;;
67185;SDS011;54116;53.518;49.398;2023-03-01T17:02:33;2.30;;;0.82;;
67185;SDS011;54116;53.518;49.398;2023-03-01T17:05:00;2.50;;;0.68;;
67185;SDS011;54116;53.518;49.398;2023-03-01T17:07:28;4.05;;;0.52;;
67185;SDS011;54116;53.518;49.398;2023-03-01T17:09:59;4.80;;;1.30;;
67185;SDS011;54116;53.518;49.398;2023-03-01T17:12:30;6.45;;;1.00;;
67185;SDS011;54116;53.518;49.398;2023-03-01T17:14:57;1.58;;;0.47;;
67185;SDS011;54116;53.518;49.398;2023-03-01T17:17:23;4.13;;;0.75;;
67185;SDS011;54116;53.518;49.398;2023-03-01T17:19:49;4.18;;;0.85;;
67185;SDS011;54116;53.518;49.398;2023-03-01T17:22:15;2.90;;;0.60;;
67185;SDS011;54116;53.518;49.398;2023-03-01T17:24:42;2.38;;;0.55;;
67185;SDS011;54116;53.518;49.398;2023-03-01T17:27:08;2.38;;;0.90;;
67185;SDS011;54116;53.518;49.398;2023-03-01T17:29:36;2.13;;;0.60;;
67185;SDS011;54116;53.518;49.398;2023-03-01T17:34:30;1.15;;;0.55;;
67185;SDS011;54116;53.518;49.398;2023-03-01T17:36:57;1.98;;;0.80;;
67185;SDS011;54116;53.518;49.398;2023-03-01T17:39:25;2.83;;;0.73;;
67185;SDS011;54116;53.518;49.398;2023-03-01T17:41:55;1.58;;;0.63;;
67185;SDS011;54116;53.518;49.398;2023-03-01T17:44:23;3.10;;;1.00;;
67185;SDS011;54116;53.518;49.398;2023-03-01T17:46:49;4.28;;;1.00;;
67185;SDS011;54116;53.518;49.398;2023-03-01T17:49:17;1.40;;;0.47;;
67185;SDS011;54116;53.518;49.398;2023-03-01T17:51:43;4.75;;;0.80;;
67185;SDS011;54116;53.518;49.398;2023-03-01T17:54:10;5.13;;;0.80;;
67185;SDS011;54116;53.518;49.398;2023-03-01T17:56:36;3.17;;;0.60;;
67185;SDS011;54116;53.518;49.398;2023-03-01T17:59:03;2.05;;;0.90;;
67185;SDS011;54116;53.518;49.398;2023-03-01T18:01:30;3.60;;;0.52;;
67185;SDS011;54116;53.518;49.398;2023-03-01T18:03:56;2.47;;;0.70;;